sensor_id;sensor_type;location;lat;lon;timestamp;pressure;altitude;pressure_sealevel;temperature;humidity
34979;BME280;21185;50.978;13.720;2023-05-22T00:00:54;98305.34;;;18.20;58.97
34979;BME280;21185;50.978;13.720;2023-05-22T00:05:56;98301.50;;;18.16;59.20
34979;BME280;21185;50.978;13.720;2023-05-22T00:10:59;98304.78;;;18.11;59.07
34979;BME280;21185;50.978;13.720;2023-05-22T00:16:01;98298.72;;;18.11;59.26
34979;BME280;21185;50.978;13.720;2023-05-22T00:21:04;98291.63;;;18.11;59.40
34979;BME280;21185;50.978;13.720;2023-05-22T00:26:06;98293.47;;;18.11;59.43
34979;BME280;21185;50.978;13.720;2023-05-22T00:31:08;98292.06;;;18.08;59.91
34979;BME280;21185;50.978;13.720;2023-05-22T00:36:12;98287.81;;;18.07;59.69
34979;BME280;21185;50.978;13.720;2023-05-22T00:41:14;98281.97;;;18.05;59.98
34979;BME280;21185;50.978;13.720;2023-05-22T00:46:16;98282.59;;;18.01;59.84
34979;BME280;21185;50.978;13.720;2023-05-22T00:51:23;98289.50;;;17.95;60.08
34979;BME280;21185;50.978;13.720;2023-05-22T00:56:26;98279.81;;;17.89;60.00
34979;BME280;21185;50.978;13.720;2023-05-22T01:01:30;98275.19;;;17.85;60.34
34979;BME280;21185;50.978;13.720;2023-05-22T01:06:34;98272.00;;;17.76;60.08
34979;BME280;21185;50.978;13.720;2023-05-22T01:33:24;98281.13;;;17.54;60.26
34979;BME280;21185;50.978;13.720;2023-05-22T01:38:27;98283.16;;;17.52;60.34
34979;BME280;21185;50.978;13.720;2023-05-22T01:43:33;98286.78;;;17.51;60.49
34979;BME280;21185;50.978;13.720;2023-05-22T01:48:35;98294.06;;;17.48;60.71
34979;BME280;21185;50.978;13.720;2023-05-22T01:53:42;98289.22;;;17.45;60.59
34979;BME280;21185;50.978;13.720;2023-05-22T01:58:59;98290.25;;;17.44;60.76
34979;BME280;21185;50.978;13.720;2023-05-22T02:04:03;98288.84;;;17.42;60.72
34979;BME280;21185;50.978;13.720;2023-05-22T02:09:09;98288.03;;;17.41;60.90
34979;BME280;21185;50.978;13.720;2023-05-22T02:14:17;98290.03;;;17.39;61.36
34979;BME280;21185;50.978;13.720;2023-05-22T02:19:21;98283.19;;;17.38;61.42
34979;BME280;21185;50.978;13.720;2023-05-22T02:24:23;98285.22;;;17.36;61.44
34979;BME280;21185;50.978;13.720;2023-05-22T02:29:31;98281.38;;;17.32;61.31
34979;BME280;21185;50.978;13.720;2023-05-22T02:34:33;98277.34;;;17.30;61.33
34979;BME280;21185;50.978;13.720;2023-05-22T02:39:35;98276.34;;;17.24;61.49
34979;BME280;21185;50.978;13.720;2023-05-22T02:44:38;98271.13;;;17.17;61.42
34979;BME280;21185;50.978;13.720;2023-05-22T02:49:40;98277.56;;;17.15;61.55
34979;BME280;21185;50.978;13.720;2023-05-22T02:54:42;98269.91;;;17.13;61.89
34979;BME280;21185;50.978;13.720;2023-05-22T02:59:45;98266.69;;;17.11;61.87
34979;BME280;21185;50.978;13.720;2023-05-22T03:04:47;98261.44;;;17.11;62.06
34979;BME280;21185;50.978;13.720;2023-05-22T03:09:49;98256.00;;;17.13;62.35
34979;BME280;21185;50.978;13.720;2023-05-22T03:14:51;98259.81;;;17.17;62.28
34979;BME280;21185;50.978;13.720;2023-05-22T03:19:53;98254.59;;;17.17;62.30
34979;BME280;21185;50.978;13.720;2023-05-22T03:24:56;98259.81;;;17.17;62.64
34979;BME280;21185;50.978;13.720;2023-05-22T03:29:58;98262.44;;;17.17;62.60
34979;BME280;21185;50.978;13.720;2023-05-22T03:35:00;98245.72;;;17.18;62.66
34979;BME280;21185;50.978;13.720;2023-05-22T03:40:03;98247.31;;;17.19;62.83
34979;BME280;21185;50.978;13.720;2023-05-22T03:45:06;98245.72;;;17.18;62.66
34979;BME280;21185;50.978;13.720;2023-05-22T03:50:09;98242.06;;;17.19;62.75
34979;BME280;21185;50.978;13.720;2023-05-22T03:55:11;98238.03;;;17.23;62.52
34979;BME280;21185;50.978;13.720;2023-05-22T04:00:15;98241.66;;;17.29;62.99
34979;BME280;21185;50.978;13.720;2023-05-22T04:05:23;98239.22;;;17.34;63.06
34979;BME280;21185;50.978;13.720;2023-05-22T04:10:25;98241.41;;;17.43;63.22
34979;BME280;21185;50.978;13.720;2023-05-22T04:15:27;98241.78;;;17.54;63.34
34979;BME280;21185;50.978;13.720;2023-05-22T04:20:32;98237.69;;;17.64;63.27
34979;BME280;21185;50.978;13.720;2023-05-22T04:25:55;98237.47;;;17.79;63.75
34979;BME280;21185;50.978;13.720;2023-05-22T04:30:57;98240.44;;;17.89;63.42
34979;BME280;21185;50.978;13.720;2023-05-22T04:36:00;98241.81;;;17.98;63.58
34979;BME280;21185;50.978;13.720;2023-05-22T04:41:03;98243.41;;;18.06;63.88
34979;BME280;21185;50.978;13.720;2023-05-22T04:46:05;98240.94;;;18.11;63.98
34979;BME280;21185;50.978;13.720;2023-05-22T04:51:10;98248.19;;;18.16;63.84
34979;BME280;21185;50.978;13.720;2023-05-22T04:56:14;98246.75;;;18.20;64.02
34979;BME280;21185;50.978;13.720;2023-05-22T05:01:29;98245.31;;;18.24;64.02
34979;BME280;21185;50.978;13.720;2023-05-22T05:06:34;98242.84;;;18.29;63.71
34979;BME280;21185;50.978;13.720;2023-05-22T05:11:38;98241.00;;;18.36;63.80
34979;BME280;21185;50.978;13.720;2023-05-22T05:16:40;98244.38;;;18.43;63.92
34979;BME280;21185;50.978;13.720;2023-05-22T05:21:42;98241.91;;;18.48;63.64
34979;BME280;21185;50.978;13.720;2023-05-22T05:26:45;98250.72;;;18.60;63.71
34979;BME280;21185;50.978;13.720;2023-05-22T05:31:49;98255.16;;;18.66;63.79
34979;BME280;21185;50.978;13.720;2023-05-22T05:37:06;98259.56;;;18.72;64.04
34979;BME280;21185;50.978;13.720;2023-05-22T05:42:16;98254.41;;;18.84;64.16
34979;BME280;21185;50.978;13.720;2023-05-22T05:47:21;98252.31;;;18.93;64.05
34979;BME280;21185;50.978;13.720;2023-05-22T05:52:26;98250.19;;;19.01;63.70
34979;BME280;21185;50.978;13.720;2023-05-22T05:57:38;98247.66;;;19.13;64.03
34979;BME280;21185;50.978;13.720;2023-05-22T06:02:43;98250.00;;;19.21;63.66
34979;BME280;21185;50.978;13.720;2023-05-22T06:08:12;98250.97;;;19.27;64.05
34979;BME280;21185;50.978;13.720;2023-05-22T06:13:16;98243.59;;;19.35;63.90
34979;BME280;21185;50.978;13.720;2023-05-22T06:18:19;98244.09;;;19.44;64.25
34979;BME280;21185;50.978;13.720;2023-05-22T06:23:22;98244.66;;;19.53;64.20
34979;BME280;21185;50.978;13.720;2023-05-22T06:28:24;98236.38;;;19.67;63.84
34979;BME280;21185;50.978;13.720;2023-05-22T06:33:27;98245.56;;;19.77;64.35
34979;BME280;21185;50.978;13.720;2023-05-22T06:38:30;98231.31;;;19.84;64.34
34979;BME280;21185;50.978;13.720;2023-05-22T06:43:34;98238.88;;;19.92;64.25
34979;BME280;21185;50.978;13.720;2023-05-22T06:48:46;98241.94;;;20.08;64.16
34979;BME280;21185;50.978;13.720;2023-05-22T06:53:56;98238.66;;;20.24;64.07
34979;BME280;21185;50.978;13.720;2023-05-22T06:59:05;98230.88;;;20.29;64.12
34979;BME280;21185;50.978;13.720;2023-05-22T07:04:30;98242.34;;;20.34;64.45
34979;BME280;21185;50.978;13.720;2023-05-22T07:09:35;98240.59;;;20.47;63.93
34979;BME280;21185;50.978;13.720;2023-05-22T07:14:38;98238.31;;;20.62;63.96
34979;BME280;21185;50.978;13.720;2023-05-22T07:19:41;98231.56;;;20.78;63.29
34979;BME280;21185;50.978;13.720;2023-05-22T07:24:43;98230.63;;;20.95;63.26
34979;BME280;21185;50.978;13.720;2023-05-22T07:29:49;98230.28;;;21.15;63.12
34979;BME280;21185;50.978;13.720;2023-05-22T07:34:55;98232.69;;;21.28;62.72
34979;BME280;21185;50.978;13.720;2023-05-22T07:39:58;98228.66;;;21.49;62.62
34979;BME280;21185;50.978;13.720;2023-05-22T07:45:00;98218.50;;;21.70;62.25
34979;BME280;21185;50.978;13.720;2023-05-22T07:50:03;98216.59;;;21.82;61.67
34979;BME280;21185;50.978;13.720;2023-05-22T07:55:10;98213.22;;;21.98;61.36
34979;BME280;21185;50.978;13.720;2023-05-22T08:00:16;98212.97;;;21.99;61.40
34979;BME280;21185;50.978;13.720;2023-05-22T08:05:18;98213.44;;;22.08;60.91
34979;BME280;21185;50.978;13.720;2023-05-22T08:10:21;98202.56;;;22.21;60.63
34979;BME280;21185;50.978;13.720;2023-05-22T08:15:24;98199.19;;;22.26;60.44
34979;BME280;21185;50.978;13.720;2023-05-22T08:20:26;98201.50;;;22.22;60.04
34979;BME280;21185;50.978;13.720;2023-05-22T08:25:28;98204.25;;;22.27;59.91
34979;BME280;21185;50.978;13.720;2023-05-22T08:30:31;98200.09;;;22.32;59.64
34979;BME280;21185;50.978;13.720;2023-05-22T08:35:33;98199.59;;;22.35;59.71
34979;BME280;21185;50.978;13.720;2023-05-22T08:40:36;98201.53;;;22.39;59.35
34979;BME280;21185;50.978;13.720;2023-05-22T08:45:40;98200.16;;;22.53;58.58
34979;BME280;21185;50.978;13.720;2023-05-22T08:50:44;98191.91;;;22.67;57.68
34979;BME280;21185;50.978;13.720;2023-05-22T08:55:53;98184.94;;;22.60;56.97
34979;BME280;21185;50.978;13.720;2023-05-22T09:00:56;98190.78;;;22.62;56.66
34979;BME280;21185;50.978;13.720;2023-05-22T09:06:00;98190.31;;;22.82;55.73
34979;BME280;21185;50.978;13.720;2023-05-22T09:11:03;98191.91;;;23.00;54.23
34979;BME280;21185;50.978;13.720;2023-05-22T09:21:12;98172.66;;;23.48;52.53
34979;BME280;21185;50.978;13.720;2023-05-22T09:26:30;98168.25;;;23.81;52.34
34979;BME280;21185;50.978;13.720;2023-05-22T09:31:40;98166.91;;;24.05;50.56
34979;BME280;21185;50.978;13.720;2023-05-22T09:36:45;98160.50;;;24.28;50.20
34979;BME280;21185;50.978;13.720;2023-05-22T09:41:47;98168.88;;;24.47;49.64
34979;BME280;21185;50.978;13.720;2023-05-22T09:46:49;98175.53;;;24.49;49.51
34979;BME280;21185;50.978;13.720;2023-05-22T09:51:53;98162.03;;;24.56;48.77
34979;BME280;21185;50.978;13.720;2023-05-22T09:56:57;98154.97;;;24.72;48.87
34979;BME280;21185;50.978;13.720;2023-05-22T10:02:00;98160.34;;;24.82;49.09
34979;BME280;21185;50.978;13.720;2023-05-22T10:07:04;98147.66;;;24.89;49.20
34979;BME280;21185;50.978;13.720;2023-05-22T10:12:08;98147.75;;;25.04;49.04
34979;BME280;21185;50.978;13.720;2023-05-22T10:17:11;98140.75;;;24.88;49.65
34979;BME280;21185;50.978;13.720;2023-05-22T10:22:14;98146.75;;;24.73;49.85
34979;BME280;21185;50.978;13.720;2023-05-22T10:27:21;98135.28;;;24.63;50.14
34979;BME280;21185;50.978;13.720;2023-05-22T10:38:19;98142.19;;;24.64;50.24
34979;BME280;21185;50.978;13.720;2023-05-22T10:43:28;98136.66;;;24.70;50.11
34979;BME280;21185;50.978;13.720;2023-05-22T10:48:40;98137.22;;;24.77;49.91
34979;BME280;21185;50.978;13.720;2023-05-22T10:53:42;98129.50;;;24.71;49.78
34979;BME280;21185;50.978;13.720;2023-05-22T10:58:56;98125.47;;;24.63;48.97
34979;BME280;21185;50.978;13.720;2023-05-22T11:04:03;98120.13;;;24.58;49.19
34979;BME280;21185;50.978;13.720;2023-05-22T11:14:20;98110.88;;;24.61;48.86
34979;BME280;21185;50.978;13.720;2023-05-22T11:19:23;98112.97;;;24.59;48.10
34979;BME280;21185;50.978;13.720;2023-05-22T11:24:31;98108.97;;;24.56;47.58
34979;BME280;21185;50.978;13.720;2023-05-22T11:29:35;98101.28;;;24.54;47.28
34979;BME280;21185;50.978;13.720;2023-05-22T11:34:40;98100.81;;;24.63;47.53
34979;BME280;21185;50.978;13.720;2023-05-22T11:39:55;98100.88;;;24.78;47.04
34979;BME280;21185;50.978;13.720;2023-05-22T11:44:59;98090.34;;;24.93;47.17
34979;BME280;21185;50.978;13.720;2023-05-22T11:50:01;98090.16;;;25.05;46.42
34979;BME280;21185;50.978;13.720;2023-05-22T11:55:05;98077.69;;;25.10;46.00
34979;BME280;21185;50.978;13.720;2023-05-22T12:00:09;98081.44;;;25.20;45.88
34979;BME280;21185;50.978;13.720;2023-05-22T12:05:14;98076.69;;;25.27;45.95
34979;BME280;21185;50.978;13.720;2023-05-22T12:10:18;98074.56;;;25.24;45.96
34979;BME280;21185;50.978;13.720;2023-05-22T12:15:20;98073.22;;;25.21;45.82
34979;BME280;21185;50.978;13.720;2023-05-22T12:20:28;98071.63;;;25.20;45.67
34979;BME280;21185;50.978;13.720;2023-05-22T12:25:34;98069.75;;;25.15;45.30
34979;BME280;21185;50.978;13.720;2023-05-22T12:30:41;98060.19;;;25.20;45.67
34979;BME280;21185;50.978;13.720;2023-05-22T12:35:43;98056.47;;;25.21;45.33
34979;BME280;21185;50.978;13.720;2023-05-22T12:40:45;98059.41;;;25.24;44.99
34979;BME280;21185;50.978;13.720;2023-05-22T12:45:47;98061.28;;;25.24;45.14
34979;BME280;21185;50.978;13.720;2023-05-22T12:50:52;98052.25;;;25.25;44.55
34979;BME280;21185;50.978;13.720;2023-05-22T12:55:55;98055.97;;;25.29;44.74
34979;BME280;21185;50.978;13.720;2023-05-22T13:00:57;98040.84;;;25.34;44.93
34979;BME280;21185;50.978;13.720;2023-05-22T13:05:59;98052.53;;;25.33;44.69
34979;BME280;21185;50.978;13.720;2023-05-22T13:11:01;98051.19;;;25.31;44.55
34979;BME280;21185;50.978;13.720;2023-05-22T13:16:05;98043.78;;;25.33;44.66
34979;BME280;21185;50.978;13.720;2023-05-22T13:21:09;98030.75;;;25.36;45.08
34979;BME280;21185;50.978;13.720;2023-05-22T13:26:11;98029.16;;;25.40;44.96
34979;BME280;21185;50.978;13.720;2023-05-22T13:31:14;98032.38;;;25.42;45.23
34979;BME280;21185;50.978;13.720;2023-05-22T13:36:16;98025.72;;;25.45;45.18
34979;BME280;21185;50.978;13.720;2023-05-22T13:41:19;98020.41;;;25.45;44.84
34979;BME280;21185;50.978;13.720;2023-05-22T13:46:22;98015.91;;;25.45;44.80
34979;BME280;21185;50.978;13.720;2023-05-22T13:51:24;98011.13;;;25.47;44.70
34979;BME280;21185;50.978;13.720;2023-05-22T13:56:26;98008.19;;;25.49;44.37
34979;BME280;21185;50.978;13.720;2023-05-22T14:01:30;98002.88;;;25.44;44.56
34979;BME280;21185;50.978;13.720;2023-05-22T14:06:32;98009.78;;;25.35;44.71
34979;BME280;21185;50.978;13.720;2023-05-22T14:11:34;98001.81;;;25.30;44.65
34979;BME280;21185;50.978;13.720;2023-05-22T14:16:37;97992.50;;;25.32;44.36
34979;BME280;21185;50.978;13.720;2023-05-22T14:21:39;97991.47;;;25.38;44.15
34979;BME280;21185;50.978;13.720;2023-05-22T14:26:51;97986.94;;;25.44;44.09
34979;BME280;21185;50.978;13.720;2023-05-22T14:32:01;97978.44;;;25.52;44.03
34979;BME280;21185;50.978;13.720;2023-05-22T14:37:08;97986.41;;;25.57;43.51
34979;BME280;21185;50.978;13.720;2023-05-22T14:42:10;97975.53;;;25.64;43.90
34979;BME280;21185;50.978;13.720;2023-05-22T14:47:14;97967.03;;;25.67;43.75
34979;BME280;21185;50.978;13.720;2023-05-22T14:52:17;97971.31;;;25.68;43.54
34979;BME280;21185;50.978;13.720;2023-05-22T14:57:19;97968.13;;;25.66;43.19
34979;BME280;21185;50.978;13.720;2023-05-22T15:02:21;97969.16;;;25.60;43.36
34979;BME280;21185;50.978;13.720;2023-05-22T15:07:25;97961.72;;;25.52;43.07
34979;BME280;21185;50.978;13.720;2023-05-22T15:12:43;97960.38;;;25.49;43.22
34979;BME280;21185;50.978;13.720;2023-05-22T15:17:45;97961.19;;;25.39;43.13
34979;BME280;21185;50.978;13.720;2023-05-22T15:22:48;97954.00;;;25.30;43.11
34979;BME280;21185;50.978;13.720;2023-05-22T15:27:50;97950.28;;;25.21;43.05
34979;BME280;21185;50.978;13.720;2023-05-22T15:32:52;97952.41;;;25.13;43.17
34979;BME280;21185;50.978;13.720;2023-05-22T15:38:02;97946.00;;;25.04;42.69
34979;BME280;21185;50.978;13.720;2023-05-22T15:43:04;97944.91;;;24.95;43.03
34979;BME280;21185;50.978;13.720;2023-05-22T15:48:07;97945.16;;;24.89;42.99
34979;BME280;21185;50.978;13.720;2023-05-22T15:53:10;97944.06;;;24.79;42.56
34979;BME280;21185;50.978;13.720;2023-05-22T15:58:12;97940.06;;;24.72;42.70
34979;BME280;21185;50.978;13.720;2023-05-22T16:03:14;97928.38;;;24.63;43.03
34979;BME280;21185;50.978;13.720;2023-05-22T16:08:18;97928.06;;;24.54;42.94
34979;BME280;21185;50.978;13.720;2023-05-22T16:13:20;97934.69;;;24.46;43.28
34979;BME280;21185;50.978;13.720;2023-05-22T16:18:22;97927.75;;;24.40;43.31
34979;BME280;21185;50.978;13.720;2023-05-22T16:23:25;97926.16;;;24.34;43.53
34979;BME280;21185;50.978;13.720;2023-05-22T16:28:27;97927.44;;;24.27;43.34
34979;BME280;21185;50.978;13.720;2023-05-22T16:33:30;97925.00;;;24.20;43.45
34979;BME280;21185;50.978;13.720;2023-05-22T16:38:33;97927.63;;;24.15;44.00
34979;BME280;21185;50.978;13.720;2023-05-22T16:43:36;97924.69;;;24.11;44.02
34979;BME280;21185;50.978;13.720;2023-05-22T16:48:38;97930.22;;;24.05;44.19
34979;BME280;21185;50.978;13.720;2023-05-22T16:53:41;97923.53;;;23.97;44.14
34979;BME280;21185;50.978;13.720;2023-05-22T16:58:44;97921.63;;;23.87;44.27
34979;BME280;21185;50.978;13.720;2023-05-22T17:03:46;97930.56;;;23.76;44.44
34979;BME280;21185;50.978;13.720;2023-05-22T17:08:49;97923.88;;;23.64;44.91
34979;BME280;21185;50.978;13.720;2023-05-22T17:13:53;97918.25;;;23.55;45.05
34979;BME280;21185;50.978;13.720;2023-05-22T17:18:55;97928.97;;;23.43;45.22
34979;BME280;21185;50.978;13.720;2023-05-22T17:23:58;97913.28;;;23.32;45.46
34979;BME280;21185;50.978;13.720;2023-05-22T17:29:01;97911.88;;;23.24;45.27
34979;BME280;21185;50.978;13.720;2023-05-22T17:34:03;97920.03;;;23.17;45.49
34979;BME280;21185;50.978;13.720;2023-05-22T17:39:07;97922.63;;;23.12;45.22
34979;BME280;21185;50.978;13.720;2023-05-22T17:44:10;97927.09;;;23.07;45.77
34979;BME280;21185;50.978;13.720;2023-05-22T17:49:12;97927.53;;;22.99;45.43
34979;BME280;21185;50.978;13.720;2023-05-22T17:54:14;97930.38;;;22.92;45.68
34979;BME280;21185;50.978;13.720;2023-05-22T17:59:17;97931.38;;;22.86;45.91
34979;BME280;21185;50.978;13.720;2023-05-22T18:04:21;97936.03;;;22.79;46.39
34979;BME280;21185;50.978;13.720;2023-05-22T18:09:23;97938.63;;;22.74;46.10
34979;BME280;21185;50.978;13.720;2023-05-22T18:14:25;97927.69;;;22.65;46.34
34979;BME280;21185;50.978;13.720;2023-05-22T18:19:27;97923.63;;;22.57;46.58
34979;BME280;21185;50.978;13.720;2023-05-22T18:24:29;97916.63;;;22.46;46.60
34979;BME280;21185;50.978;13.720;2023-05-22T18:29:33;97910.97;;;22.38;46.79
34979;BME280;21185;50.978;13.720;2023-05-22T18:34:35;97921.19;;;22.29;47.10
34979;BME280;21185;50.978;13.720;2023-05-22T18:39:38;97915.28;;;22.22;47.09
34979;BME280;21185;50.978;13.720;2023-05-22T18:44:40;97916.75;;;22.13;47.21
34979;BME280;21185;50.978;13.720;2023-05-22T18:49:43;97919.81;;;22.05;46.95
34979;BME280;21185;50.978;13.720;2023-05-22T18:54:45;97919.16;;;21.97;47.17
34979;BME280;21185;50.978;13.720;2023-05-22T18:59:48;97927.25;;;21.91;47.23
34979;BME280;21185;50.978;13.720;2023-05-22T19:04:50;97934.31;;;21.85;47.61
34979;BME280;21185;50.978;13.720;2023-05-22T19:09:52;97933.44;;;21.80;47.56
34979;BME280;21185;50.978;13.720;2023-05-22T19:14:55;97931.22;;;21.72;47.61
34979;BME280;21185;50.978;13.720;2023-05-22T19:19:57;97933.53;;;21.68;47.36
34979;BME280;21185;50.978;13.720;2023-05-22T19:24:59;97935.63;;;21.66;47.50
34979;BME280;21185;50.978;13.720;2023-05-22T19:30:03;97932.19;;;21.65;47.47
34979;BME280;21185;50.978;13.720;2023-05-22T19:35:06;97941.69;;;21.66;47.49
34979;BME280;21185;50.978;13.720;2023-05-22T19:40:09;97935.31;;;21.62;47.57
34979;BME280;21185;50.978;13.720;2023-05-22T19:45:12;97942.34;;;21.57;47.30
34979;BME280;21185;50.978;13.720;2023-05-22T19:50:14;97944.34;;;21.50;47.96
34979;BME280;21185;50.978;13.720;2023-05-22T19:55:17;97955.84;;;21.44;47.91
34979;BME280;21185;50.978;13.720;2023-05-22T20:00:19;97962.91;;;21.38;48.16
34979;BME280;21185;50.978;13.720;2023-05-22T20:05:21;97954.56;;;21.29;48.48
34979;BME280;21185;50.978;13.720;2023-05-22T20:10:25;97953.91;;;21.22;48.86
34979;BME280;21185;50.978;13.720;2023-05-22T20:15:27;97960.91;;;21.17;49.15
34979;BME280;21185;50.978;13.720;2023-05-22T20:20:31;97951.31;;;21.11;49.33
34979;BME280;21185;50.978;13.720;2023-05-22T20:25:33;97949.38;;;21.06;49.50
34979;BME280;21185;50.978;13.720;2023-05-22T20:30:35;97944.59;;;21.03;49.73
34979;BME280;21185;50.978;13.720;2023-05-22T20:35:37;97939.22;;;20.98;49.82
34979;BME280;21185;50.978;13.720;2023-05-22T20:40:40;97937.28;;;20.93;49.73
34979;BME280;21185;50.978;13.720;2023-05-22T20:45:47;97938.47;;;20.86;50.28
34979;BME280;21185;50.978;13.720;2023-05-22T20:50:49;97937.34;;;20.82;50.59
34979;BME280;21185;50.978;13.720;2023-05-22T20:55:51;97931.44;;;20.75;50.54
34979;BME280;21185;50.978;13.720;2023-05-22T21:00:54;97927.09;;;20.68;50.48
34979;BME280;21185;50.978;13.720;2023-05-22T21:05:57;97928.84;;;20.63;50.89
34979;BME280;21185;50.978;13.720;2023-05-22T21:10:59;97928.50;;;20.59;50.84
34979;BME280;21185;50.978;13.720;2023-05-22T21:16:01;97922.13;;;20.55;50.99
34979;BME280;21185;50.978;13.720;2023-05-22T21:21:03;97927.28;;;20.50;51.25
34979;BME280;21185;50.978;13.720;2023-05-22T21:26:05;97917.78;;;20.49;51.11
34979;BME280;21185;50.978;13.720;2023-05-22T21:31:07;97917.44;;;20.46;51.68
34979;BME280;21185;50.978;13.720;2023-05-22T21:36:09;97916.63;;;20.45;51.69
34979;BME280;21185;50.978;13.720;2023-05-22T21:41:12;97908.72;;;20.45;51.98
34979;BME280;21185;50.978;13.720;2023-05-22T21:46:14;97912.97;;;20.46;52.29
34979;BME280;21185;50.978;13.720;2023-05-22T21:51:20;97906.91;;;20.46;52.41
34979;BME280;21185;50.978;13.720;2023-05-22T21:56:27;97902.66;;;20.45;52.52
34979;BME280;21185;50.978;13.720;2023-05-22T22:01:30;97904.72;;;20.43;52.97
34979;BME280;21185;50.978;13.720;2023-05-22T22:06:39;97910.56;;;20.45;53.18
34979;BME280;21185;50.978;13.720;2023-05-22T22:11:41;97915.03;;;20.44;52.74
34979;BME280;21185;50.978;13.720;2023-05-22T22:16:43;97920.78;;;20.41;52.99
34979;BME280;21185;50.978;13.720;2023-05-22T22:21:46;97920.06;;;20.34;52.70
34979;BME280;21185;50.978;13.720;2023-05-22T22:26:48;97914.47;;;20.30;52.53
34979;BME280;21185;50.978;13.720;2023-05-22T22:31:50;97925.16;;;20.24;52.96
34979;BME280;21185;50.978;13.720;2023-05-22T22:36:53;97920.56;;;20.19;52.91
34979;BME280;21185;50.978;13.720;2023-05-22T22:41:55;97915.53;;;20.18;53.01
34979;BME280;21185;50.978;13.720;2023-05-22T22:47:11;97915.75;;;20.16;52.96
34979;BME280;21185;50.978;13.720;2023-05-22T22:52:13;97929.72;;;20.17;53.21
34979;BME280;21185;50.978;13.720;2023-05-22T22:57:15;97918.97;;;20.18;53.14
34979;BME280;21185;50.978;13.720;2023-05-22T23:02:17;97921.84;;;20.17;53.29
34979;BME280;21185;50.978;13.720;2023-05-22T23:07:22;97917.03;;;20.14;53.22
34979;BME280;21185;50.978;13.720;2023-05-22T23:12:24;97916.91;;;20.09;53.32
34979;BME280;21185;50.978;13.720;2023-05-22T23:17:27;97908.69;;;20.05;53.55
34979;BME280;21185;50.978;13.720;2023-05-22T23:22:29;97902.28;;;20.01;53.80
34979;BME280;21185;50.978;13.720;2023-05-22T23:27:31;97903.31;;;20.00;53.87
34979;BME280;21185;50.978;13.720;2023-05-22T23:32:33;97899.88;;;19.99;54.25
34979;BME280;21185;50.978;13.720;2023-05-22T23:37:36;97910.41;;;19.99;54.38
34979;BME280;21185;50.978;13.720;2023-05-22T23:48:11;97912.59;;;20.02;54.81
34979;BME280;21185;50.978;13.720;2023-05-22T23:53:14;97901.00;;;20.03;54.69
34979;BME280;21185;50.978;13.720;2023-05-22T23:58:16;97899.19;;;20.04;54.92
